createdAt,value
2023-03-13T00:01:24.445Z,98368.28
2023-03-13T00:03:52.136Z,98367.22
2023-03-13T00:06:19.945Z,98370.16
2023-03-13T00:08:48.838Z,98370.84
2023-03-13T00:11:16.806Z,98362.97
2023-03-13T00:13:45.082Z,98357.41
2023-03-13T00:16:13.608Z,98361.72
2023-03-13T00:18:46.152Z,98357.47
2023-03-13T00:21:13.956Z,98346.03
2023-03-13T00:23:41.733Z,98335.28
2023-03-13T00:26:12.184Z,98329.94
2023-03-13T00:28:41.507Z,98318.88
2023-03-13T00:31:10.401Z,98321.81
2023-03-13T00:33:39.215Z,98318.53
2023-03-13T00:36:08.510Z,98318.78
2023-03-13T00:38:36.642Z,98317.59
2023-03-13T00:41:06.017Z,98314.81
2023-03-13T00:43:35.544Z,98307.69
2023-03-13T00:46:03.313Z,98301.25
2023-03-13T00:48:31.220Z,98303.13
2023-03-13T00:50:58.863Z,98293.28
2023-03-13T00:53:26.480Z,98289.88
2023-03-13T00:55:55.597Z,98288.34
2023-03-13T00:58:23.600Z,98281.13
2023-03-13T01:00:53.085Z,98271.38
2023-03-13T01:03:21.389Z,98277.41
2023-03-13T01:05:57.620Z,98268.59
2023-03-13T01:08:25.422Z,98268.50
2023-03-13T01:10:59.157Z,98260.78
2023-03-13T01:13:26.914Z,98250.56
2023-03-13T01:15:56.076Z,98250.75
2023-03-13T01:18:23.855Z,98250.41
2023-03-13T01:20:51.387Z,98244.22
2023-03-13T01:23:18.952Z,98236.56
2023-03-13T01:25:46.527Z,98238.03
2023-03-13T01:28:14.243Z,98221.56
2023-03-13T01:30:41.894Z,98219.34
2023-03-13T01:33:10.818Z,98218.16
2023-03-13T01:35:38.568Z,98218.66
2023-03-13T01:38:06.173Z,98210.78
2023-03-13T01:40:40.392Z,98210.00
2023-03-13T01:43:26.160Z,98198.97
2023-03-13T01:45:58.453Z,98204.59
2023-03-13T01:48:31.718Z,98200.84
2023-03-13T01:51:01.188Z,98191.94
2023-03-13T01:53:30.172Z,98190.25
2023-03-13T01:55:58.505Z,98177.50
2023-03-13T01:58:26.558Z,98184.91
2023-03-13T02:00:54.129Z,98170.47
2023-03-13T02:03:22.373Z,98158.06
2023-03-13T02:05:52.084Z,98161.03
2023-03-13T02:08:22.630Z,98162.31
2023-03-13T02:10:52.775Z,98157.03
2023-03-13T02:13:21.489Z,98152.03
2023-03-13T02:15:49.302Z,98144.66
2023-03-13T02:18:17.127Z,98145.22
2023-03-13T02:20:45.135Z,98142.41
2023-03-13T02:23:20.841Z,98129.34
2023-03-13T02:25:50.956Z,98136.06
2023-03-13T02:28:20.908Z,98133.78
2023-03-13T02:30:49.788Z,98120.88
2023-03-13T02:33:19.394Z,98114.66
2023-03-13T02:35:47.482Z,98115.25
2023-03-13T02:38:20.286Z,98106.34
2023-03-13T02:40:50.166Z,98118.56
2023-03-13T02:43:21.345Z,98103.59
2023-03-13T02:46:10.204Z,98096.28
2023-03-13T02:48:39.861Z,98083.41
2023-03-13T02:51:11.892Z,98089.06
2023-03-13T02:53:39.428Z,98072.78
2023-03-13T02:56:08.636Z,98075.81
2023-03-13T02:58:49.226Z,98072.81
2023-03-13T03:01:17.698Z,98061.53
2023-03-13T03:03:45.341Z,98061.63
2023-03-13T03:06:12.988Z,98063.13
2023-03-13T03:08:41.483Z,98064.25
2023-03-13T03:11:10.539Z,98060.69
2023-03-13T03:13:38.443Z,98061.44
2023-03-13T03:16:09.995Z,98058.81
2023-03-13T03:18:38.159Z,98059.28
2023-03-13T03:21:06.781Z,98068.97
2023-03-13T03:23:34.730Z,98065.75
2023-03-13T03:26:02.684Z,98072.53
2023-03-13T03:28:31.616Z,98065.50
2023-03-13T03:30:59.193Z,98059.78
2023-03-13T03:33:26.719Z,98057.63
2023-03-13T03:36:00.607Z,98056.00
2023-03-13T03:38:28.609Z,98051.78
2023-03-13T03:40:56.260Z,98035.41
2023-03-13T03:43:23.905Z,98037.00
2023-03-13T03:45:53.119Z,98035.88
2023-03-13T03:48:20.727Z,98022.91
2023-03-13T03:50:48.326Z,98012.94
2023-03-13T03:53:16.184Z,98013.59
2023-03-13T03:55:43.829Z,98018.88
2023-03-13T03:58:11.551Z,98000.72
2023-03-13T04:00:39.146Z,98010.41
2023-03-13T04:03:08.129Z,98008.41
2023-03-13T04:05:35.772Z,98008.22
2023-03-13T04:08:03.400Z,98016.13
2023-03-13T04:10:30.973Z,98008.59
2023-03-13T04:12:58.591Z,98010.31
2023-03-13T04:15:26.247Z,98013.50
2023-03-13T04:17:53.807Z,98013.59
2023-03-13T04:20:22.706Z,98006.81
2023-03-13T04:22:50.285Z,98004.19
2023-03-13T04:25:17.972Z,98011.34
2023-03-13T04:27:45.561Z,98009.00
2023-03-13T04:30:14.028Z,98009.25
2023-03-13T04:32:41.866Z,98015.09
2023-03-13T04:35:09.997Z,98007.38
2023-03-13T04:37:38.897Z,97977.09
2023-03-13T04:40:08.003Z,97982.38
2023-03-13T04:42:35.596Z,97984.25
2023-03-13T04:45:03.197Z,97981.97
2023-03-13T04:47:30.833Z,97985.75
2023-03-13T04:49:58.422Z,97990.16
2023-03-13T04:52:26.084Z,97990.84
2023-03-13T04:54:54.974Z,97983.50
2023-03-13T04:57:22.572Z,97983.78
2023-03-13T04:59:50.317Z,97983.59
2023-03-13T05:02:17.941Z,97969.66
2023-03-13T05:04:45.548Z,97967.50
2023-03-13T05:07:13.160Z,97962.06
2023-03-13T05:09:40.774Z,97958.94
2023-03-13T05:12:10.369Z,97938.16
2023-03-13T05:14:37.972Z,97942.38
2023-03-13T05:17:05.546Z,97948.22
2023-03-13T05:19:33.120Z,97932.50
2023-03-13T05:22:00.677Z,97925.34
2023-03-13T05:24:28.279Z,97918.63
2023-03-13T05:26:55.869Z,97897.28
2023-03-13T05:29:24.817Z,97898.69
2023-03-13T05:31:52.367Z,97911.66
2023-03-13T05:34:20.112Z,97917.59
2023-03-13T05:36:47.664Z,97912.75
2023-03-13T05:39:15.360Z,97919.47
2023-03-13T05:41:42.888Z,97910.44
2023-03-13T05:44:11.082Z,97907.78
2023-03-13T05:46:40.058Z,97918.53
2023-03-13T05:49:08.117Z,97912.03
2023-03-13T05:51:35.701Z,97908.25
2023-03-13T05:54:03.396Z,97906.44
2023-03-13T05:56:31.161Z,97900.34
2023-03-13T05:58:58.699Z,97897.59
2023-03-13T06:01:26.349Z,97899.94
2023-03-13T06:03:55.533Z,97882.13
2023-03-13T06:06:23.118Z,97876.59
2023-03-13T06:08:52.817Z,97876.94
2023-03-13T06:11:20.403Z,97881.19
2023-03-13T06:13:47.993Z,97889.34
2023-03-13T06:16:15.582Z,97883.41
2023-03-13T06:18:43.221Z,97884.59
2023-03-13T06:21:12.145Z,97870.38
2023-03-13T06:23:39.728Z,97873.00
2023-03-13T06:26:07.345Z,97862.88
2023-03-13T06:28:34.965Z,97857.41
2023-03-13T06:31:03.103Z,97866.38
2023-03-13T06:33:31.009Z,97883.06
2023-03-13T06:35:59.902Z,97886.75
2023-03-13T06:38:29.318Z,97888.13
2023-03-13T06:40:57.071Z,97884.13
2023-03-13T06:43:24.759Z,97880.22
2023-03-13T06:45:52.355Z,97873.38
2023-03-13T06:48:20.242Z,97877.50
2023-03-13T06:50:47.762Z,97870.00
2023-03-13T06:53:16.873Z,97879.63
2023-03-13T06:55:46.319Z,97876.25
2023-03-13T06:58:29.080Z,97877.59
2023-03-13T07:00:59.278Z,97878.25
2023-03-13T07:03:27.047Z,97875.28
2023-03-13T07:05:57.117Z,97883.00
2023-03-13T07:08:25.910Z,97876.34
2023-03-13T07:10:55.471Z,97890.16
2023-03-13T07:13:23.081Z,97891.34
2023-03-13T07:15:51.429Z,97895.78
2023-03-13T07:18:19.069Z,97906.13
2023-03-13T07:20:46.658Z,97908.03
2023-03-13T07:23:14.330Z,97912.25
2023-03-13T07:25:41.912Z,97903.28
2023-03-13T07:28:10.876Z,97903.47
2023-03-13T07:30:38.459Z,97900.41
2023-03-13T07:33:06.220Z,97921.03
2023-03-13T07:35:33.794Z,97924.50
2023-03-13T07:38:01.450Z,97931.47
2023-03-13T07:40:29.058Z,97914.69
2023-03-13T07:42:56.629Z,97922.19
2023-03-13T07:45:25.583Z,97930.41
2023-03-13T07:47:53.155Z,97923.03
2023-03-13T07:50:20.964Z,97918.69
2023-03-13T07:52:48.671Z,97924.41
2023-03-13T07:55:16.392Z,97937.59
2023-03-13T07:57:43.989Z,97929.03
2023-03-13T08:00:16.466Z,97936.66
2023-03-13T08:02:45.520Z,97940.13
2023-03-13T08:05:13.133Z,97936.88
2023-03-13T08:07:40.761Z,97943.00
2023-03-13T08:10:09.140Z,97939.28
2023-03-13T08:12:36.722Z,97927.66
2023-03-13T08:15:04.748Z,97938.25
2023-03-13T08:17:32.563Z,97942.47
2023-03-13T08:20:01.535Z,97940.16
2023-03-13T08:22:29.260Z,97936.88
2023-03-13T08:24:56.913Z,97950.75
2023-03-13T08:27:24.708Z,97945.63
2023-03-13T08:29:53.070Z,97947.56
2023-03-13T08:32:22.044Z,97961.63
2023-03-13T08:34:49.717Z,97952.94
2023-03-13T08:37:18.678Z,97954.84
2023-03-13T08:39:48.594Z,97962.69
2023-03-13T08:42:16.317Z,97969.22
2023-03-13T08:44:44.084Z,97963.72
2023-03-13T08:47:11.738Z,97959.59
2023-03-13T08:49:39.507Z,97957.91
2023-03-13T08:55:01.051Z,97950.72
2023-03-13T08:57:28.729Z,97949.78
2023-03-13T08:59:56.377Z,97946.09
2023-03-13T09:02:23.959Z,97944.78
2023-03-13T09:04:51.590Z,97939.97
2023-03-13T09:07:19.249Z,97932.88
2023-03-13T09:09:46.902Z,97934.66
2023-03-13T09:12:30.105Z,97927.03
2023-03-13T09:14:58.594Z,97932.72
2023-03-13T09:17:27.065Z,97929.78
2023-03-13T09:20:00.461Z,97936.41
2023-03-13T09:22:31.144Z,97926.69
2023-03-13T09:24:58.824Z,97932.41
2023-03-13T09:27:28.317Z,97923.53
2023-03-13T09:29:56.069Z,97923.13
2023-03-13T09:32:23.777Z,97921.31
2023-03-13T09:34:51.382Z,97911.47
2023-03-13T09:37:19.061Z,97911.69
2023-03-13T09:39:46.643Z,97908.50
2023-03-13T09:42:16.694Z,97904.91
2023-03-13T09:44:47.852Z,97912.31
2023-03-13T09:47:20.252Z,97905.66
2023-03-13T09:49:51.279Z,97913.25
2023-03-13T09:52:20.633Z,97905.63
2023-03-13T09:54:51.007Z,97894.19
2023-03-13T09:57:26.453Z,97896.09
2023-03-13T09:59:59.388Z,97892.63
2023-03-13T10:02:30.950Z,97901.63
2023-03-13T10:05:06.572Z,97902.78
2023-03-13T10:07:34.403Z,97899.81
2023-03-13T10:10:02.796Z,97890.72
2023-03-13T10:12:32.202Z,97882.34
2023-03-13T10:15:17.167Z,97878.63
2023-03-13T10:17:45.101Z,97881.78
2023-03-13T10:20:21.198Z,97882.38
2023-03-13T10:22:51.127Z,97876.59
2023-03-13T10:25:26.268Z,97877.56
2023-03-13T10:27:55.127Z,97874.34
2023-03-13T10:30:26.496Z,97875.13
2023-03-13T10:33:00.610Z,97873.94
2023-03-13T10:35:36.699Z,97878.28
2023-03-13T10:38:07.894Z,97878.91
2023-03-13T10:40:35.774Z,97874.06
2023-03-13T10:43:05.798Z,97866.53
2023-03-13T10:45:37.022Z,97869.72
2023-03-13T10:48:12.585Z,97867.81
2023-03-13T10:50:44.179Z,97861.91
2023-03-13T10:53:23.854Z,97861.56
2023-03-13T10:55:54.316Z,97855.78
2023-03-13T10:58:25.152Z,97857.47
2023-03-13T11:00:54.050Z,97838.56
2023-03-13T11:03:26.689Z,97838.00
2023-03-13T11:05:58.991Z,97843.28
2023-03-13T11:08:28.612Z,97830.56
2023-03-13T11:10:58.922Z,97833.84
2023-03-13T11:13:37.130Z,97825.41
2023-03-13T11:16:23.784Z,97825.06
2023-03-13T11:19:16.046Z,97820.28
2023-03-13T11:21:51.540Z,97807.38
2023-03-13T11:24:25.220Z,97805.63
2023-03-13T11:27:04.842Z,97805.19
2023-03-13T11:29:39.816Z,97806.00
2023-03-13T11:32:18.626Z,97791.22
2023-03-13T11:34:50.668Z,97791.56
2023-03-13T11:37:20.166Z,97786.16
2023-03-13T11:39:54.973Z,97774.28
2023-03-13T11:42:49.928Z,97780.22
2023-03-13T11:45:31.059Z,97778.41
2023-03-13T11:48:05.736Z,97767.94
2023-03-13T11:50:45.481Z,97757.34
2023-03-13T11:53:29.133Z,97744.03
2023-03-13T11:56:05.084Z,97730.91
2023-03-13T11:58:43.739Z,97729.72
2023-03-13T12:01:13.040Z,97725.50
2023-03-13T12:03:55.224Z,97720.09
2023-03-13T12:06:28.714Z,97723.34
2023-03-13T12:09:01.743Z,97724.66
2023-03-13T12:11:32.073Z,97722.50
2023-03-13T12:14:03.475Z,97712.50
2023-03-13T12:16:40.657Z,97705.94
2023-03-13T12:19:12.589Z,97696.66
2023-03-13T12:21:45.068Z,97688.34
2023-03-13T12:24:15.575Z,97690.38
2023-03-13T12:26:45.754Z,97695.69
2023-03-13T12:29:17.194Z,97687.00
2023-03-13T12:31:48.898Z,97674.97
2023-03-13T12:34:21.451Z,97677.38
2023-03-13T12:36:53.077Z,97675.56
2023-03-13T12:39:27.207Z,97661.38
2023-03-13T12:42:10.415Z,97665.78
2023-03-13T12:44:38.048Z,97659.75
2023-03-13T12:47:10.647Z,97646.03
2023-03-13T12:50:02.248Z,97639.16
2023-03-13T12:52:57.552Z,97627.97
2023-03-13T12:55:34.936Z,97620.22
2023-03-13T12:58:14.968Z,97604.53
2023-03-13T13:00:43.966Z,97604.94
2023-03-13T13:03:25.377Z,97595.63
2023-03-13T13:06:04.320Z,97584.53
2023-03-13T13:08:35.124Z,97571.53
2023-03-13T13:11:43.784Z,97565.03
2023-03-13T13:14:59.298Z,97559.09
2023-03-13T13:18:11.442Z,97537.53
2023-03-13T13:20:58.121Z,97531.34
2023-03-13T13:23:37.413Z,97520.53
2023-03-13T13:26:48.225Z,97507.88
2023-03-13T13:29:55.375Z,97489.41
2023-03-13T13:32:40.936Z,97482.41
2023-03-13T13:35:31.925Z,97468.59
2023-03-13T13:38:22.273Z,97481.47
2023-03-13T13:41:01.802Z,97460.16
2023-03-13T13:43:32.468Z,97451.53
2023-03-13T13:46:03.320Z,97441.44
2023-03-13T13:48:36.479Z,97437.69
2023-03-13T13:51:34.370Z,97420.56
2023-03-13T13:54:03.071Z,97423.44
2023-03-13T13:56:49.445Z,97398.97
2023-03-13T13:59:40.820Z,97404.16
2023-03-13T14:02:18.238Z,97397.19
2023-03-13T14:04:50.217Z,97393.53
2023-03-13T14:07:20.052Z,97380.16
2023-03-13T14:09:53.885Z,97371.53
2023-03-13T14:12:31.493Z,97365.03
2023-03-13T14:15:08.532Z,97361.56
2023-03-13T14:17:39.980Z,97354.22
2023-03-13T14:20:18.821Z,97363.25
2023-03-13T14:22:46.996Z,97347.88
2023-03-13T14:25:14.626Z,97349.59
2023-03-13T14:27:46.353Z,97339.91
2023-03-13T14:30:16.586Z,97341.88
2023-03-13T14:32:44.243Z,97329.31
2023-03-13T14:35:16.516Z,97323.94
2023-03-13T14:37:45.484Z,97311.03
2023-03-13T14:40:27.616Z,97319.53
2023-03-13T14:42:58.264Z,97312.78
2023-03-13T14:45:29.303Z,97316.03
2023-03-13T14:47:57.453Z,97323.09
2023-03-13T14:50:26.100Z,97318.97
2023-03-13T14:52:55.910Z,97314.75
2023-03-13T14:55:32.821Z,97304.03
2023-03-13T14:58:04.978Z,97303.59
2023-03-13T15:00:36.261Z,97358.94
2023-03-13T15:03:25.534Z,97416.88
2023-03-13T15:06:22.688Z,97370.31
2023-03-13T15:08:52.305Z,97370.53
2023-03-13T15:11:27.596Z,97384.06
2023-03-13T15:13:57.088Z,97385.50
2023-03-13T15:16:25.582Z,97383.53
2023-03-13T15:18:54.006Z,97363.31
2023-03-13T15:21:27.047Z,97365.16
2023-03-13T15:23:55.649Z,97373.72
2023-03-13T15:26:24.204Z,97370.69
2023-03-13T15:28:51.925Z,97363.03
2023-03-13T15:31:21.749Z,97352.38
2023-03-13T15:33:49.849Z,97327.22
2023-03-13T15:36:17.508Z,97317.19
2023-03-13T15:38:45.125Z,97327.97
2023-03-13T15:41:12.661Z,97310.69
2023-03-13T15:43:40.195Z,97287.13
2023-03-13T15:46:10.990Z,97272.59
2023-03-13T15:48:41.344Z,97304.50
2023-03-13T15:51:11.714Z,97300.28
2023-03-13T15:53:39.358Z,97291.88
2023-03-13T15:56:14.350Z,97266.06
2023-03-13T15:58:41.894Z,97253.25
2023-03-13T16:01:11.140Z,97228.47
2023-03-13T16:03:40.734Z,97186.75
2023-03-13T16:06:16.262Z,97206.03
2023-03-13T16:08:44.105Z,97206.09
2023-03-13T16:11:14.497Z,97207.19
2023-03-13T16:13:42.641Z,97215.09
2023-03-13T16:16:20.141Z,97238.97
2023-03-13T16:18:49.851Z,97253.16
2023-03-13T16:21:20.622Z,97249.41
2023-03-13T16:23:48.402Z,97231.75
2023-03-13T16:26:18.043Z,97231.16
2023-03-13T16:28:45.877Z,97230.13
2023-03-13T16:31:18.205Z,97229.41
2023-03-13T16:33:47.164Z,97247.28
2023-03-13T16:36:17.514Z,97241.28
2023-03-13T16:38:45.156Z,97241.16
2023-03-13T16:41:16.335Z,97245.97
2023-03-13T16:43:44.151Z,97241.88
2023-03-13T16:46:17.161Z,97228.59
2023-03-13T16:48:45.300Z,97216.88
2023-03-13T16:51:19.154Z,97228.84
2023-03-13T16:53:47.726Z,97234.47
2023-03-13T16:56:20.038Z,97232.09
2023-03-13T16:58:48.122Z,97231.06
2023-03-13T17:01:16.697Z,97238.41
2023-03-13T17:03:44.424Z,97224.50
2023-03-13T17:06:16.659Z,97216.47
2023-03-13T17:08:45.697Z,97220.53
2023-03-13T17:11:15.970Z,97213.84
2023-03-13T17:13:45.829Z,97208.56
2023-03-13T17:16:16.112Z,97202.16
2023-03-13T17:18:45.185Z,97183.13
2023-03-13T17:21:14.555Z,97168.19
2023-03-13T17:23:42.243Z,97157.88
2023-03-13T17:26:17.559Z,97170.72
2023-03-13T17:28:46.120Z,97177.66
2023-03-13T17:31:14.015Z,97165.94
2023-03-13T17:33:41.751Z,97167.66
2023-03-13T17:36:20.712Z,97183.06
2023-03-13T17:38:49.198Z,97197.25
2023-03-13T17:41:19.747Z,97207.44
2023-03-13T17:43:47.601Z,97219.94
2023-03-13T17:46:17.619Z,97231.59
2023-03-13T17:48:45.785Z,97227.19
2023-03-13T17:51:19.152Z,97232.56
2023-03-13T17:53:47.099Z,97242.41
2023-03-13T17:56:16.560Z,97250.09
2023-03-13T17:58:46.296Z,97245.19
2023-03-13T18:01:15.634Z,97237.97
2023-03-13T18:03:43.435Z,97233.72
2023-03-13T18:06:20.170Z,97227.97
2023-03-13T18:08:48.890Z,97230.13
2023-03-13T18:11:17.427Z,97223.31
2023-03-13T18:13:46.914Z,97218.16
2023-03-13T18:16:17.801Z,97207.72
2023-03-13T18:18:45.604Z,97196.44
2023-03-13T18:21:13.211Z,97217.84
2023-03-13T18:23:40.796Z,97229.03
2023-03-13T18:26:23.797Z,97233.34
2023-03-13T18:28:53.416Z,97238.97
2023-03-13T18:31:21.053Z,97243.53
2023-03-13T18:33:48.700Z,97258.31
2023-03-13T18:36:18.271Z,97246.19
2023-03-13T18:38:46.218Z,97252.06
2023-03-13T18:41:15.385Z,97255.41
2023-03-13T18:43:43.546Z,97255.03
2023-03-13T18:46:16.740Z,97239.56
2023-03-13T18:48:44.302Z,97243.06
2023-03-13T18:51:14.698Z,97237.69
2023-03-13T18:53:42.867Z,97241.38
2023-03-13T18:56:17.344Z,97245.94
2023-03-13T18:58:45.411Z,97257.47
2023-03-13T19:01:15.940Z,97263.59
2023-03-13T19:03:44.110Z,97278.72
2023-03-13T19:06:18.953Z,97267.19
2023-03-13T19:08:47.263Z,97229.66
2023-03-13T19:11:15.383Z,97254.47
2023-03-13T19:13:42.938Z,97234.31
2023-03-13T19:16:16.277Z,97233.97
2023-03-13T19:18:44.252Z,97242.38
2023-03-13T19:21:19.140Z,97216.59
2023-03-13T19:23:47.001Z,97175.34
2023-03-13T19:26:19.566Z,97159.25
2023-03-13T19:28:47.076Z,97147.16
2023-03-13T19:31:17.635Z,97160.97
2023-03-13T19:33:47.488Z,97149.09
2023-03-13T19:36:16.079Z,97161.81
2023-03-13T19:38:44.284Z,97126.31
2023-03-13T19:41:12.897Z,97132.22
2023-03-13T19:43:41.062Z,97131.97
2023-03-13T19:46:24.294Z,97132.56
2023-03-13T19:48:55.439Z,97138.81
2023-03-13T19:51:23.535Z,97107.16
2023-03-13T19:53:51.194Z,97104.66
2023-03-13T19:56:20.912Z,97093.75
2023-03-13T19:58:48.928Z,97092.53
2023-03-13T20:01:17.921Z,97094.59
2023-03-13T20:03:48.224Z,97072.53
2023-03-13T20:06:17.946Z,97056.84
2023-03-13T20:08:45.742Z,97029.03
2023-03-13T20:11:13.643Z,97008.78
2023-03-13T20:13:41.346Z,97010.97
2023-03-13T20:16:10.787Z,97016.09
2023-03-13T20:18:38.639Z,97017.66
2023-03-13T20:21:07.870Z,97015.28
2023-03-13T20:23:35.397Z,97006.41
2023-03-13T20:26:04.818Z,96990.34
2023-03-13T20:28:32.362Z,96997.56
2023-03-13T20:30:59.951Z,97015.75
2023-03-13T20:33:27.614Z,97010.72
2023-03-13T20:35:57.921Z,97020.06
2023-03-13T20:38:26.999Z,97013.59
2023-03-13T20:40:55.411Z,97007.75
2023-03-13T20:43:23.486Z,97017.69
2023-03-13T20:45:51.075Z,97019.72
2023-03-13T20:48:19.000Z,97023.19
2023-03-13T20:50:46.654Z,97037.31
2023-03-13T20:53:15.002Z,97035.41
2023-03-13T20:55:43.985Z,97030.25
2023-03-13T20:58:11.683Z,97055.59
2023-03-13T21:00:39.436Z,97066.19
2023-03-13T21:03:07.014Z,97074.63
2023-03-13T21:05:34.593Z,97089.94
2023-03-13T21:08:02.207Z,97109.19
2023-03-13T21:10:29.748Z,97115.69
2023-03-13T21:12:58.631Z,97126.31
2023-03-13T21:15:26.139Z,97133.50
2023-03-13T21:17:53.797Z,97127.75
2023-03-13T21:20:21.410Z,97113.72
2023-03-13T21:22:49.107Z,97105.09
2023-03-13T21:25:17.127Z,97107.84
2023-03-13T21:27:44.733Z,97112.38
2023-03-13T21:30:17.463Z,97111.06
2023-03-13T21:32:45.570Z,97122.81
2023-03-13T21:35:13.844Z,97115.38
2023-03-13T21:37:42.698Z,97116.69
2023-03-13T21:40:11.573Z,97132.09
2023-03-13T21:42:39.197Z,97142.84
2023-03-13T21:45:08.256Z,97140.72
2023-03-13T21:47:37.530Z,97141.44
2023-03-13T21:50:07.306Z,97136.91
2023-03-13T21:52:40.567Z,97144.06
2023-03-13T21:55:09.899Z,97140.25
2023-03-13T21:57:37.471Z,97150.78
2023-03-13T22:00:08.122Z,97141.50
2023-03-13T22:02:37.293Z,97142.09
2023-03-13T22:05:05.791Z,97132.63
2023-03-13T22:07:33.311Z,97120.03
2023-03-13T22:10:00.942Z,97104.59
2023-03-13T22:12:28.900Z,97107.00
2023-03-13T22:14:57.839Z,97108.34
2023-03-13T22:17:25.452Z,97124.97
2023-03-13T22:19:54.405Z,97136.09
2023-03-13T22:22:22.057Z,97137.63
2023-03-13T22:24:50.085Z,97162.22
2023-03-13T22:27:19.335Z,97170.44
2023-03-13T22:29:47.619Z,97156.78
2023-03-13T22:32:16.227Z,97140.75
2023-03-13T22:34:46.974Z,97135.75
2023-03-13T22:37:16.131Z,97130.13
2023-03-13T22:39:43.694Z,97115.84
2023-03-13T22:42:11.478Z,97115.50
2023-03-13T22:44:39.054Z,97115.56
2023-03-13T22:47:06.620Z,97102.81
2023-03-13T22:49:34.230Z,97107.84
2023-03-13T22:52:02.614Z,97109.97
2023-03-13T22:54:31.817Z,97099.31
2023-03-13T22:56:59.389Z,97090.59
2023-03-13T22:59:27.870Z,97081.81
2023-03-13T23:01:55.991Z,97077.78
2023-03-13T23:04:24.281Z,97073.22
2023-03-13T23:06:55.270Z,97064.25
2023-03-13T23:09:23.134Z,97062.22
2023-03-13T23:11:52.589Z,97054.81
2023-03-13T23:14:20.416Z,97067.13
2023-03-13T23:16:50.861Z,97076.56
2023-03-13T23:19:18.606Z,97085.28
2023-03-13T23:21:46.230Z,97092.47
2023-03-13T23:24:13.890Z,97115.53
2023-03-13T23:26:41.444Z,97128.34
2023-03-13T23:29:10.468Z,97134.69
2023-03-13T23:31:43.644Z,97126.91
2023-03-13T23:34:21.567Z,97104.28
2023-03-13T23:36:49.842Z,97121.34
2023-03-13T23:39:17.624Z,97124.03
2023-03-13T23:41:47.863Z,97135.75
2023-03-13T23:44:22.137Z,97147.13
2023-03-13T23:46:50.213Z,97134.78
2023-03-13T23:49:23.426Z,97145.03
2023-03-13T23:51:51.461Z,97143.91
2023-03-13T23:54:19.147Z,97139.44
2023-03-13T23:56:46.737Z,97155.34
2023-03-13T23:59:14.277Z,97165.03
